Ulrum, Netherlands
Current Conditions -  °F | °C
As of 1:55 AM on Thursday 23 Oct 2014 (Local Time) from EHMA Reporting Station
Broken Clouds Broken Clouds  
Wind Chill: 55°   Ceiling: 4400
Heat Index: 55°   Visibility: 6mi
Dew Point: 46°   Wind: 9mph
Humidity: 72%   Direction: 280°W
Pressure: 30.12"   Gusts: NA
Location:  53.36°N, 6.33°E
Report Text: EHMA 222355Z AUTO 28008KT 9999 FEW023/// SCT029/// BKN044///13/08 Q1020
Loading
Personal Weather Stations






























Interactive Weather Map
Tropical Storm Tracking
New forecast layout! Learn more

10-Day Weather Forecast

Advertisements
Track Severe Weather on mobile